sensor_id;sensor_type;location;lat;lon;timestamp;pressure;altitude;pressure_sealevel;temperature;humidity
35910;BME280;22004;49.120;-0.200;2023-03-14T00:01:53;99054.56;;;11.02;78.49
35910;BME280;22004;49.120;-0.200;2023-03-14T00:04:18;99057.78;;;11.29;77.40
35910;BME280;22004;49.120;-0.200;2023-03-14T00:06:44;99050.19;;;11.37;76.86
35910;BME280;22004;49.120;-0.200;2023-03-14T00:09:12;99057.34;;;10.95;77.69
35910;BME280;22004;49.120;-0.200;2023-03-14T00:11:37;99059.72;;;11.03;77.88
35910;BME280;22004;49.120;-0.200;2023-03-14T00:14:03;99056.75;;;11.11;77.50
35910;BME280;22004;49.120;-0.200;2023-03-14T00:16:28;99057.16;;;11.45;76.18
35910;BME280;22004;49.120;-0.200;2023-03-14T00:18:53;99063.56;;;11.44;76.08
35910;BME280;22004;49.120;-0.200;2023-03-14T00:21:19;99056.13;;;11.58;75.80
35910;BME280;22004;49.120;-0.200;2023-03-14T00:23:44;99062.25;;;10.98;77.29
35910;BME280;22004;49.120;-0.200;2023-03-14T00:26:12;99055.91;;;11.11;77.56
35910;BME280;22004;49.120;-0.200;2023-03-14T00:28:38;99059.28;;;11.25;77.37
35910;BME280;22004;49.120;-0.200;2023-03-14T00:31:05;99065.28;;;11.38;76.73
35910;BME280;22004;49.120;-0.200;2023-03-14T00:33:31;99068.28;;;11.49;76.17
35910;BME280;22004;49.120;-0.200;2023-03-14T00:36:03;99068.25;;;11.00;77.89
35910;BME280;22004;49.120;-0.200;2023-03-14T00:38:30;99066.19;;;11.32;77.29
35910;BME280;22004;49.120;-0.200;2023-03-14T00:40:55;99065.97;;;11.34;77.16
35910;BME280;22004;49.120;-0.200;2023-03-14T00:43:21;99070.97;;;10.94;79.75
35910;BME280;22004;49.120;-0.200;2023-03-14T00:45:51;99069.78;;;11.26;77.68
35910;BME280;22004;49.120;-0.200;2023-03-14T00:48:18;99073.81;;;10.99;79.66
35910;BME280;22004;49.120;-0.200;2023-03-14T00:50:44;99069.41;;;11.23;78.55
35910;BME280;22004;49.120;-0.200;2023-03-14T00:53:09;99082.00;;;11.22;78.69
35910;BME280;22004;49.120;-0.200;2023-03-14T00:55:39;99083.38;;;11.13;79.93
35910;BME280;22004;49.120;-0.200;2023-03-14T00:58:05;99087.78;;;10.89;81.54
35910;BME280;22004;49.120;-0.200;2023-03-14T01:00:30;99087.84;;;11.01;80.72
35910;BME280;22004;49.120;-0.200;2023-03-14T01:02:56;99088.53;;;11.15;79.91
35910;BME280;22004;49.120;-0.200;2023-03-14T01:05:22;99084.66;;;11.10;80.47
35910;BME280;22004;49.120;-0.200;2023-03-14T01:07:47;99096.28;;;11.04;81.13
35910;BME280;22004;49.120;-0.200;2023-03-14T01:10:12;99088.00;;;11.06;81.36
35910;BME280;22004;49.120;-0.200;2023-03-14T01:12:38;99096.50;;;11.03;81.45
35910;BME280;22004;49.120;-0.200;2023-03-14T01:15:03;99094.53;;;11.28;79.75
35910;BME280;22004;49.120;-0.200;2023-03-14T01:17:29;99100.75;;;11.29;79.26
35910;BME280;22004;49.120;-0.200;2023-03-14T01:19:54;99104.19;;;10.99;81.66
35910;BME280;22004;49.120;-0.200;2023-03-14T01:22:20;99103.44;;;11.10;81.18
35910;BME280;22004;49.120;-0.200;2023-03-14T01:24:46;99113.72;;;10.95;81.49
35910;BME280;22004;49.120;-0.200;2023-03-14T01:27:12;99110.16;;;11.01;81.20
35910;BME280;22004;49.120;-0.200;2023-03-14T01:29:38;99115.44;;;10.90;82.37
35910;BME280;22004;49.120;-0.200;2023-03-14T01:32:03;99116.41;;;11.50;78.48
35910;BME280;22004;49.120;-0.200;2023-03-14T01:34:29;99124.31;;;11.08;81.46
35910;BME280;22004;49.120;-0.200;2023-03-14T01:36:54;99127.53;;;11.35;79.41
35910;BME280;22004;49.120;-0.200;2023-03-14T01:39:19;99128.75;;;11.39;79.67
35910;BME280;22004;49.120;-0.200;2023-03-14T01:41:45;99126.78;;;11.28;80.45
35910;BME280;22004;49.120;-0.200;2023-03-14T01:44:12;99128.78;;;11.51;79.26
35910;BME280;22004;49.120;-0.200;2023-03-14T01:46:41;99129.84;;;11.13;81.30
35910;BME280;22004;49.120;-0.200;2023-03-14T01:49:13;99134.13;;;11.39;79.84
35910;BME280;22004;49.120;-0.200;2023-03-14T01:57:11;99168.88;;;11.16;81.26
35910;BME280;22004;49.120;-0.200;2023-03-14T01:59:40;99160.75;;;11.59;79.13
35910;BME280;22004;49.120;-0.200;2023-03-14T02:02:09;99158.06;;;11.59;79.25
35910;BME280;22004;49.120;-0.200;2023-03-14T02:04:36;99167.91;;;11.47;79.88
35910;BME280;22004;49.120;-0.200;2023-03-14T02:09:38;99185.22;;;11.51;79.36
35910;BME280;22004;49.120;-0.200;2023-03-14T02:12:04;99197.16;;;11.55;78.97
35910;BME280;22004;49.120;-0.200;2023-03-14T02:14:33;99206.78;;;11.63;78.94
35910;BME280;22004;49.120;-0.200;2023-03-14T02:17:00;99210.84;;;11.35;80.43
35910;BME280;22004;49.120;-0.200;2023-03-14T02:19:36;99216.34;;;11.41;80.15
35910;BME280;22004;49.120;-0.200;2023-03-14T02:22:12;99242.84;;;11.37;80.77
35910;BME280;22004;49.120;-0.200;2023-03-14T02:24:45;99261.59;;;11.62;79.15
35910;BME280;22004;49.120;-0.200;2023-03-14T02:27:15;99267.44;;;11.59;78.37
35910;BME280;22004;49.120;-0.200;2023-03-14T02:29:52;99274.06;;;11.56;78.14
35910;BME280;22004;49.120;-0.200;2023-03-14T02:32:20;99294.72;;;11.37;77.31
35910;BME280;22004;49.120;-0.200;2023-03-14T02:34:50;99299.00;;;11.20;77.25
35910;BME280;22004;49.120;-0.200;2023-03-14T02:37:19;99320.38;;;11.08;77.31
35910;BME280;22004;49.120;-0.200;2023-03-14T02:39:46;99333.84;;;11.02;76.11
35910;BME280;22004;49.120;-0.200;2023-03-14T02:42:14;99326.13;;;10.87;75.03
35910;BME280;22004;49.120;-0.200;2023-03-14T02:44:54;99350.97;;;11.07;74.15
35910;BME280;22004;49.120;-0.200;2023-03-14T02:47:27;99351.59;;;11.03;75.23
35910;BME280;22004;49.120;-0.200;2023-03-14T02:49:59;99366.59;;;11.17;74.15
35910;BME280;22004;49.120;-0.200;2023-03-14T02:52:26;99370.63;;;11.01;75.09
35910;BME280;22004;49.120;-0.200;2023-03-14T02:54:52;99376.13;;;11.13;74.02
35910;BME280;22004;49.120;-0.200;2023-03-14T02:57:17;99394.72;;;11.15;73.76
35910;BME280;22004;49.120;-0.200;2023-03-14T02:59:43;99397.72;;;11.00;74.49
35910;BME280;22004;49.120;-0.200;2023-03-14T03:02:08;99403.47;;;11.03;74.19
35910;BME280;22004;49.120;-0.200;2023-03-14T03:04:33;99412.06;;;10.80;74.09
35910;BME280;22004;49.120;-0.200;2023-03-14T03:06:59;99430.41;;;10.90;73.59
35910;BME280;22004;49.120;-0.200;2023-03-14T03:09:24;99422.78;;;10.87;71.46
35910;BME280;22004;49.120;-0.200;2023-03-14T03:11:49;99429.06;;;11.06;72.61
35910;BME280;22004;49.120;-0.200;2023-03-14T03:14:15;99439.28;;;10.91;72.05
35910;BME280;22004;49.120;-0.200;2023-03-14T03:16:40;99463.31;;;10.72;71.27
35910;BME280;22004;49.120;-0.200;2023-03-14T03:19:05;99476.56;;;11.12;70.58
35910;BME280;22004;49.120;-0.200;2023-03-14T03:21:31;99490.44;;;11.09;70.43
35910;BME280;22004;49.120;-0.200;2023-03-14T03:23:56;99502.31;;;10.81;71.36
35910;BME280;22004;49.120;-0.200;2023-03-14T03:26:21;99511.66;;;11.17;70.31
35910;BME280;22004;49.120;-0.200;2023-03-14T03:28:47;99513.69;;;10.77;70.81
35910;BME280;22004;49.120;-0.200;2023-03-14T03:31:15;99476.31;;;10.75;68.50
35910;BME280;22004;49.120;-0.200;2023-03-14T03:33:40;99546.53;;;10.72;70.67
35910;BME280;22004;49.120;-0.200;2023-03-14T03:36:06;99553.53;;;10.73;69.23
35910;BME280;22004;49.120;-0.200;2023-03-14T03:38:31;99550.19;;;10.91;69.44
35910;BME280;22004;49.120;-0.200;2023-03-14T03:40:57;99561.78;;;10.78;69.45
35910;BME280;22004;49.120;-0.200;2023-03-14T03:43:22;99578.56;;;10.47;69.04
35910;BME280;22004;49.120;-0.200;2023-03-14T03:45:47;99593.38;;;10.90;69.02
35910;BME280;22004;49.120;-0.200;2023-03-14T03:48:13;99611.16;;;10.64;70.29
35910;BME280;22004;49.120;-0.200;2023-03-14T03:50:44;99596.09;;;10.70;67.41
35910;BME280;22004;49.120;-0.200;2023-03-14T03:53:09;99614.69;;;10.58;69.04
35910;BME280;22004;49.120;-0.200;2023-03-14T03:55:34;99629.75;;;10.72;67.03
35910;BME280;22004;49.120;-0.200;2023-03-14T03:58:00;99618.56;;;10.82;68.43
35910;BME280;22004;49.120;-0.200;2023-03-14T04:00:25;99640.72;;;10.51;68.71
35910;BME280;22004;49.120;-0.200;2023-03-14T04:02:50;99641.34;;;10.59;68.43
35910;BME280;22004;49.120;-0.200;2023-03-14T04:05:16;99652.25;;;10.58;68.62
35910;BME280;22004;49.120;-0.200;2023-03-14T04:07:41;99650.16;;;10.93;67.22
35910;BME280;22004;49.120;-0.200;2023-03-14T04:10:07;99658.25;;;10.27;69.47
35910;BME280;22004;49.120;-0.200;2023-03-14T04:12:33;99676.84;;;10.35;67.59
35910;BME280;22004;49.120;-0.200;2023-03-14T04:14:58;99683.03;;;10.55;67.89
35910;BME280;22004;49.120;-0.200;2023-03-14T04:17:23;99688.72;;;10.19;66.59
35910;BME280;22004;49.120;-0.200;2023-03-14T04:19:49;99684.06;;;10.61;66.32
35910;BME280;22004;49.120;-0.200;2023-03-14T04:22:16;99703.22;;;10.38;66.24
35910;BME280;22004;49.120;-0.200;2023-03-14T04:24:41;99716.47;;;10.40;64.55
35910;BME280;22004;49.120;-0.200;2023-03-14T04:27:07;99718.94;;;10.41;66.31
35910;BME280;22004;49.120;-0.200;2023-03-14T04:29:32;99732.97;;;10.37;66.85
35910;BME280;22004;49.120;-0.200;2023-03-14T04:31:57;99746.38;;;10.43;67.43
35910;BME280;22004;49.120;-0.200;2023-03-14T04:34:23;99750.53;;;10.72;65.75
35910;BME280;22004;49.120;-0.200;2023-03-14T04:36:48;99751.22;;;10.06;67.28
35910;BME280;22004;49.120;-0.200;2023-03-14T04:39:13;99762.66;;;10.28;66.84
35910;BME280;22004;49.120;-0.200;2023-03-14T04:41:39;99773.19;;;10.30;65.66
35910;BME280;22004;49.120;-0.200;2023-03-14T04:44:04;99781.31;;;10.08;68.15
35910;BME280;22004;49.120;-0.200;2023-03-14T04:46:29;99788.16;;;10.04;66.60
35910;BME280;22004;49.120;-0.200;2023-03-14T04:48:55;99796.53;;;10.36;67.87
35910;BME280;22004;49.120;-0.200;2023-03-14T04:51:21;99809.56;;;10.59;67.05
35910;BME280;22004;49.120;-0.200;2023-03-14T04:53:48;99813.38;;;10.23;67.75
35910;BME280;22004;49.120;-0.200;2023-03-14T04:56:13;99821.25;;;10.25;68.16
35910;BME280;22004;49.120;-0.200;2023-03-14T04:58:39;99815.00;;;10.18;67.50
35910;BME280;22004;49.120;-0.200;2023-03-14T05:01:05;99825.09;;;9.74;68.83
35910;BME280;22004;49.120;-0.200;2023-03-14T05:03:31;99830.03;;;10.05;68.85
35910;BME280;22004;49.120;-0.200;2023-03-14T05:05:56;99818.59;;;10.38;68.28
35910;BME280;22004;49.120;-0.200;2023-03-14T05:08:23;99823.41;;;10.08;69.18
35910;BME280;22004;49.120;-0.200;2023-03-14T05:10:56;99832.41;;;9.87;69.25
35910;BME280;22004;49.120;-0.200;2023-03-14T05:13:22;99823.97;;;10.31;67.93
35910;BME280;22004;49.120;-0.200;2023-03-14T05:15:47;99845.88;;;10.00;68.15
35910;BME280;22004;49.120;-0.200;2023-03-14T05:18:12;99852.66;;;10.31;69.13
35910;BME280;22004;49.120;-0.200;2023-03-14T05:20:38;99856.66;;;10.14;69.31
35910;BME280;22004;49.120;-0.200;2023-03-14T05:23:03;99859.53;;;10.05;68.38
35910;BME280;22004;49.120;-0.200;2023-03-14T05:25:28;99859.16;;;10.15;67.11
35910;BME280;22004;49.120;-0.200;2023-03-14T05:27:54;99862.81;;;10.07;68.91
35910;BME280;22004;49.120;-0.200;2023-03-14T05:30:20;99870.88;;;10.14;67.89
35910;BME280;22004;49.120;-0.200;2023-03-14T05:32:47;99886.66;;;10.24;68.22
35910;BME280;22004;49.120;-0.200;2023-03-14T05:35:12;99897.81;;;10.27;68.77
35910;BME280;22004;49.120;-0.200;2023-03-14T05:37:38;99905.28;;;10.39;67.56
35910;BME280;22004;49.120;-0.200;2023-03-14T05:40:05;99902.22;;;10.42;68.26
35910;BME280;22004;49.120;-0.200;2023-03-14T05:42:31;99919.13;;;10.42;67.63
35910;BME280;22004;49.120;-0.200;2023-03-14T05:44:57;99920.56;;;10.03;69.21
35910;BME280;22004;49.120;-0.200;2023-03-14T05:47:22;99926.53;;;10.33;67.80
35910;BME280;22004;49.120;-0.200;2023-03-14T05:49:48;99926.97;;;10.44;68.83
35910;BME280;22004;49.120;-0.200;2023-03-14T05:52:13;99932.28;;;9.96;67.87
35910;BME280;22004;49.120;-0.200;2023-03-14T05:54:39;99928.72;;;10.23;67.75
35910;BME280;22004;49.120;-0.200;2023-03-14T05:57:04;99938.00;;;10.21;69.44
35910;BME280;22004;49.120;-0.200;2023-03-14T05:59:30;99952.44;;;9.92;67.18
35910;BME280;22004;49.120;-0.200;2023-03-14T06:01:55;99963.44;;;10.03;68.58
35910;BME280;22004;49.120;-0.200;2023-03-14T06:04:20;99967.16;;;10.02;67.20
35910;BME280;22004;49.120;-0.200;2023-03-14T06:06:46;99972.97;;;10.34;67.61
35910;BME280;22004;49.120;-0.200;2023-03-14T06:09:11;99980.91;;;10.21;67.73
35910;BME280;22004;49.120;-0.200;2023-03-14T06:11:36;99989.09;;;10.13;68.39
35910;BME280;22004;49.120;-0.200;2023-03-14T06:14:02;99983.66;;;10.27;67.20
35910;BME280;22004;49.120;-0.200;2023-03-14T06:16:27;99991.44;;;9.94;68.64
35910;BME280;22004;49.120;-0.200;2023-03-14T06:18:52;100006.50;;;10.23;68.74
35910;BME280;22004;49.120;-0.200;2023-03-14T06:21:18;99993.69;;;9.91;67.31
35910;BME280;22004;49.120;-0.200;2023-03-14T06:23:45;99993.97;;;10.02;68.75
35910;BME280;22004;49.120;-0.200;2023-03-14T06:26:10;100003.88;;;9.52;68.74
35910;BME280;22004;49.120;-0.200;2023-03-14T06:28:37;100014.56;;;9.95;69.28
35910;BME280;22004;49.120;-0.200;2023-03-14T06:31:02;100015.56;;;9.94;68.60
35910;BME280;22004;49.120;-0.200;2023-03-14T06:33:28;100017.25;;;9.74;68.54
35910;BME280;22004;49.120;-0.200;2023-03-14T06:35:54;100030.16;;;10.13;67.41
35910;BME280;22004;49.120;-0.200;2023-03-14T06:38:19;100039.03;;;9.86;68.06
35910;BME280;22004;49.120;-0.200;2023-03-14T06:40:44;100045.91;;;9.52;69.19
35910;BME280;22004;49.120;-0.200;2023-03-14T06:43:10;100054.25;;;10.06;67.20
35910;BME280;22004;49.120;-0.200;2023-03-14T06:45:35;100065.84;;;10.14;67.63
35910;BME280;22004;49.120;-0.200;2023-03-14T06:48:00;100066.28;;;10.39;67.29
35910;BME280;22004;49.120;-0.200;2023-03-14T06:50:26;100074.25;;;10.25;68.48
35910;BME280;22004;49.120;-0.200;2023-03-14T06:52:51;100081.53;;;10.10;68.01
35910;BME280;22004;49.120;-0.200;2023-03-14T06:55:17;100094.53;;;10.13;68.15
35910;BME280;22004;49.120;-0.200;2023-03-14T06:57:43;100097.66;;;9.74;68.40
35910;BME280;22004;49.120;-0.200;2023-03-14T07:00:10;100104.91;;;9.37;70.74
35910;BME280;22004;49.120;-0.200;2023-03-14T07:02:36;100107.81;;;9.57;70.60
35910;BME280;22004;49.120;-0.200;2023-03-14T07:05:01;100106.56;;;9.96;69.65
35910;BME280;22004;49.120;-0.200;2023-03-14T07:07:27;100114.28;;;9.12;69.96
35910;BME280;22004;49.120;-0.200;2023-03-14T07:09:52;100111.84;;;9.89;68.71
35910;BME280;22004;49.120;-0.200;2023-03-14T07:12:18;100118.69;;;9.70;69.69
35910;BME280;22004;49.120;-0.200;2023-03-14T07:14:43;100113.44;;;9.83;68.00
35910;BME280;22004;49.120;-0.200;2023-03-14T07:17:09;100131.06;;;9.71;67.95
35910;BME280;22004;49.120;-0.200;2023-03-14T07:19:35;100135.81;;;9.54;68.42
35910;BME280;22004;49.120;-0.200;2023-03-14T07:22:00;100156.44;;;9.90;67.08
35910;BME280;22004;49.120;-0.200;2023-03-14T07:24:26;100158.09;;;9.91;68.17
35910;BME280;22004;49.120;-0.200;2023-03-14T07:26:52;100158.75;;;9.78;65.32
35910;BME280;22004;49.120;-0.200;2023-03-14T07:29:17;100167.22;;;9.97;67.31
35910;BME280;22004;49.120;-0.200;2023-03-14T07:31:43;100178.97;;;10.17;66.74
35910;BME280;22004;49.120;-0.200;2023-03-14T07:34:08;100186.66;;;10.42;66.17
35910;BME280;22004;49.120;-0.200;2023-03-14T07:36:33;100195.63;;;10.13;66.06
35910;BME280;22004;49.120;-0.200;2023-03-14T07:38:59;100194.75;;;10.05;65.78
35910;BME280;22004;49.120;-0.200;2023-03-14T07:41:24;100208.00;;;10.28;66.05
35910;BME280;22004;49.120;-0.200;2023-03-14T07:43:49;100211.63;;;10.21;65.68
35910;BME280;22004;49.120;-0.200;2023-03-14T07:46:15;100215.31;;;10.20;63.51
35910;BME280;22004;49.120;-0.200;2023-03-14T07:48:41;100236.09;;;12.34;58.59
35910;BME280;22004;49.120;-0.200;2023-03-14T07:51:07;100236.91;;;13.99;53.93
35910;BME280;22004;49.120;-0.200;2023-03-14T07:53:32;100254.66;;;15.08;51.10
35910;BME280;22004;49.120;-0.200;2023-03-14T07:55:57;100255.34;;;14.78;52.48
35910;BME280;22004;49.120;-0.200;2023-03-14T07:58:23;100262.81;;;14.76;49.31
35910;BME280;22004;49.120;-0.200;2023-03-14T08:00:49;100271.28;;;15.73;48.42
35910;BME280;22004;49.120;-0.200;2023-03-14T08:03:14;100271.53;;;15.28;47.77
35910;BME280;22004;49.120;-0.200;2023-03-14T08:05:40;100276.06;;;15.09;49.84
35910;BME280;22004;49.120;-0.200;2023-03-14T08:08:07;100296.06;;;16.25;47.79
35910;BME280;22004;49.120;-0.200;2023-03-14T08:10:32;100306.53;;;14.98;49.74
35910;BME280;22004;49.120;-0.200;2023-03-14T08:12:58;100311.94;;;14.28;51.06
35910;BME280;22004;49.120;-0.200;2023-03-14T08:15:24;100305.06;;;13.87;53.16
35910;BME280;22004;49.120;-0.200;2023-03-14T08:17:50;100308.47;;;13.36;55.00
35910;BME280;22004;49.120;-0.200;2023-03-14T08:20:23;100328.09;;;12.77;55.50
35910;BME280;22004;49.120;-0.200;2023-03-14T08:22:49;100324.25;;;12.25;55.62
35910;BME280;22004;49.120;-0.200;2023-03-14T08:25:15;100337.56;;;11.92;55.12
35910;BME280;22004;49.120;-0.200;2023-03-14T08:27:40;100332.09;;;12.88;55.88
35910;BME280;22004;49.120;-0.200;2023-03-14T08:30:09;100323.13;;;12.61;55.64
35910;BME280;22004;49.120;-0.200;2023-03-14T08:32:35;100342.41;;;12.64;55.76
35910;BME280;22004;49.120;-0.200;2023-03-14T08:35:00;100342.41;;;12.10;55.32
35910;BME280;22004;49.120;-0.200;2023-03-14T08:37:26;100342.91;;;12.27;56.00
35910;BME280;22004;49.120;-0.200;2023-03-14T08:39:52;100363.44;;;12.34;54.62
35910;BME280;22004;49.120;-0.200;2023-03-14T08:42:17;100368.13;;;12.87;55.55
35910;BME280;22004;49.120;-0.200;2023-03-14T08:44:43;100375.19;;;12.88;53.19
35910;BME280;22004;49.120;-0.200;2023-03-14T08:47:09;100371.25;;;12.97;54.43
35910;BME280;22004;49.120;-0.200;2023-03-14T08:49:34;100387.22;;;13.05;53.45
35910;BME280;22004;49.120;-0.200;2023-03-14T08:52:04;100388.84;;;12.80;54.47
35910;BME280;22004;49.120;-0.200;2023-03-14T08:54:30;100386.75;;;12.75;54.70
35910;BME280;22004;49.120;-0.200;2023-03-14T08:56:56;100394.03;;;12.81;53.81
35910;BME280;22004;49.120;-0.200;2023-03-14T08:59:21;100392.53;;;12.72;55.01
35910;BME280;22004;49.120;-0.200;2023-03-14T09:01:47;100399.09;;;12.50;53.72
35910;BME280;22004;49.120;-0.200;2023-03-14T09:04:12;100412.38;;;12.58;55.72
35910;BME280;22004;49.120;-0.200;2023-03-14T09:06:38;100422.88;;;13.01;55.13
35910;BME280;22004;49.120;-0.200;2023-03-14T09:09:04;100413.47;;;12.77;54.38
35910;BME280;22004;49.120;-0.200;2023-03-14T09:11:30;100416.44;;;12.88;54.52
35910;BME280;22004;49.120;-0.200;2023-03-14T09:13:56;100416.53;;;12.54;55.26
35910;BME280;22004;49.120;-0.200;2023-03-14T09:16:21;100412.00;;;12.61;53.80
35910;BME280;22004;49.120;-0.200;2023-03-14T09:18:47;100417.28;;;12.41;52.53
35910;BME280;22004;49.120;-0.200;2023-03-14T09:21:12;100433.81;;;12.92;53.73
35910;BME280;22004;49.120;-0.200;2023-03-14T09:23:38;100431.81;;;12.47;54.72
35910;BME280;22004;49.120;-0.200;2023-03-14T09:26:04;100435.09;;;12.97;53.31
35910;BME280;22004;49.120;-0.200;2023-03-14T09:28:29;100426.66;;;12.52;52.63
35910;BME280;22004;49.120;-0.200;2023-03-14T09:30:55;100435.41;;;12.19;55.37
35910;BME280;22004;49.120;-0.200;2023-03-14T09:33:21;100441.34;;;11.80;56.55
35910;BME280;22004;49.120;-0.200;2023-03-14T09:35:46;100435.13;;;12.07;55.40
35910;BME280;22004;49.120;-0.200;2023-03-14T09:38:12;100449.31;;;12.64;52.91
35910;BME280;22004;49.120;-0.200;2023-03-14T09:40:38;100449.22;;;13.05;52.68
35910;BME280;22004;49.120;-0.200;2023-03-14T09:43:04;100453.47;;;12.25;55.97
35910;BME280;22004;49.120;-0.200;2023-03-14T09:45:35;100453.09;;;12.35;55.19
35910;BME280;22004;49.120;-0.200;2023-03-14T09:48:03;100465.75;;;12.89;54.13
35910;BME280;22004;49.120;-0.200;2023-03-14T09:50:40;100471.72;;;12.30;56.08
35910;BME280;22004;49.120;-0.200;2023-03-14T09:53:11;100490.38;;;11.54;57.49
35910;BME280;22004;49.120;-0.200;2023-03-14T09:55:39;100497.56;;;11.32;59.47
35910;BME280;22004;49.120;-0.200;2023-03-14T09:58:10;100507.97;;;10.84;61.44
35910;BME280;22004;49.120;-0.200;2023-03-14T10:00:36;100508.78;;;11.14;62.06
35910;BME280;22004;49.120;-0.200;2023-03-14T10:05:36;100518.19;;;12.17;59.03
35910;BME280;22004;49.120;-0.200;2023-03-14T10:08:02;100516.41;;;11.75;59.87
35910;BME280;22004;49.120;-0.200;2023-03-14T10:10:27;100521.38;;;12.62;58.22
35910;BME280;22004;49.120;-0.200;2023-03-14T10:13:13;100526.56;;;12.01;59.92
35910;BME280;22004;49.120;-0.200;2023-03-14T10:15:39;100528.94;;;11.68;59.68
35910;BME280;22004;49.120;-0.200;2023-03-14T10:18:11;100532.91;;;11.93;59.13
35910;BME280;22004;49.120;-0.200;2023-03-14T10:20:45;100531.00;;;11.87;59.71
35910;BME280;22004;49.120;-0.200;2023-03-14T10:25:40;100548.22;;;12.14;59.31
35910;BME280;22004;49.120;-0.200;2023-03-14T10:28:22;100536.63;;;12.13;58.83
35910;BME280;22004;49.120;-0.200;2023-03-14T10:30:48;100548.84;;;11.73;60.43
35910;BME280;22004;49.120;-0.200;2023-03-14T10:35:42;100570.72;;;11.27;62.44
35910;BME280;22004;49.120;-0.200;2023-03-14T10:38:13;100568.69;;;11.29;63.49
35910;BME280;22004;49.120;-0.200;2023-03-14T10:40:41;100564.03;;;11.23;62.90
35910;BME280;22004;49.120;-0.200;2023-03-14T10:43:15;100563.16;;;11.01;62.94
35910;BME280;22004;49.120;-0.200;2023-03-14T10:45:43;100572.22;;;11.15;61.83
35910;BME280;22004;49.120;-0.200;2023-03-14T10:48:22;100579.19;;;11.09;60.92
35910;BME280;22004;49.120;-0.200;2023-03-14T10:51:01;100573.84;;;12.10;60.88
35910;BME280;22004;49.120;-0.200;2023-03-14T10:53:33;100560.19;;;12.74;58.31
35910;BME280;22004;49.120;-0.200;2023-03-14T10:56:02;100573.31;;;11.78;60.67
35910;BME280;22004;49.120;-0.200;2023-03-14T10:58:30;100584.00;;;11.72;61.47
35910;BME280;22004;49.120;-0.200;2023-03-14T11:04:23;100602.34;;;11.47;61.66
35910;BME280;22004;49.120;-0.200;2023-03-14T11:09:33;100599.16;;;11.22;62.75
35910;BME280;22004;49.120;-0.200;2023-03-14T11:14:59;100583.91;;;11.07;63.15
35910;BME280;22004;49.120;-0.200;2023-03-14T11:23:02;100589.50;;;12.28;60.30
35910;BME280;22004;49.120;-0.200;2023-03-14T11:25:38;100583.25;;;12.49;59.98
35910;BME280;22004;49.120;-0.200;2023-03-14T11:28:09;100586.06;;;12.40;59.65
35910;BME280;22004;49.120;-0.200;2023-03-14T11:30:55;100585.47;;;12.17;60.39
35910;BME280;22004;49.120;-0.200;2023-03-14T11:33:35;100606.56;;;11.92;61.23
35910;BME280;22004;49.120;-0.200;2023-03-14T11:36:10;100630.84;;;11.41;61.13
35910;BME280;22004;49.120;-0.200;2023-03-14T11:38:50;100628.47;;;11.17;63.52
35910;BME280;22004;49.120;-0.200;2023-03-14T11:41:41;100636.88;;;11.13;63.82
35910;BME280;22004;49.120;-0.200;2023-03-14T11:44:38;100647.81;;;11.12;65.02
35910;BME280;22004;49.120;-0.200;2023-03-14T11:47:17;100648.84;;;10.96;65.12
35910;BME280;22004;49.120;-0.200;2023-03-14T11:49:53;100638.50;;;11.80;63.30
35910;BME280;22004;49.120;-0.200;2023-03-14T11:52:41;100647.00;;;11.62;63.27
35910;BME280;22004;49.120;-0.200;2023-03-14T11:55:13;100645.78;;;11.65;63.05
35910;BME280;22004;49.120;-0.200;2023-03-14T11:57:42;100642.13;;;11.73;62.89
35910;BME280;22004;49.120;-0.200;2023-03-14T12:02:55;100645.22;;;11.84;62.00
35910;BME280;22004;49.120;-0.200;2023-03-14T12:08:17;100655.63;;;11.58;62.75
35910;BME280;22004;49.120;-0.200;2023-03-14T12:13:13;100645.66;;;11.73;61.35
35910;BME280;22004;49.120;-0.200;2023-03-14T12:15:42;100642.03;;;11.81;60.11
35910;BME280;22004;49.120;-0.200;2023-03-14T12:21:00;100664.81;;;12.21;59.50
35910;BME280;22004;49.120;-0.200;2023-03-14T12:23:28;100658.69;;;12.55;58.61
35910;BME280;22004;49.120;-0.200;2023-03-14T12:26:07;100653.16;;;12.63;58.49
35910;BME280;22004;49.120;-0.200;2023-03-14T12:28:33;100677.22;;;12.72;59.02
35910;BME280;22004;49.120;-0.200;2023-03-14T12:34:03;100664.06;;;11.70;60.59
35910;BME280;22004;49.120;-0.200;2023-03-14T12:39:31;100688.31;;;11.76;59.90
35910;BME280;22004;49.120;-0.200;2023-03-14T12:42:03;100688.31;;;11.91;58.76
35910;BME280;22004;49.120;-0.200;2023-03-14T12:46:57;100690.19;;;12.12;58.75
35910;BME280;22004;49.120;-0.200;2023-03-14T12:49:29;100695.84;;;11.66;60.74
35910;BME280;22004;49.120;-0.200;2023-03-14T12:52:00;100717.59;;;11.20;60.96
35910;BME280;22004;49.120;-0.200;2023-03-14T12:59:50;100741.28;;;10.26;65.58
35910;BME280;22004;49.120;-0.200;2023-03-14T13:04:50;100763.16;;;10.07;65.65
35910;BME280;22004;49.120;-0.200;2023-03-14T13:08:01;100775.22;;;10.11;65.75
35910;BME280;22004;49.120;-0.200;2023-03-14T13:10:27;100776.56;;;10.38;65.95
35910;BME280;22004;49.120;-0.200;2023-03-14T13:13:15;100775.25;;;10.34;66.69
35910;BME280;22004;49.120;-0.200;2023-03-14T13:15:44;100782.22;;;10.20;64.69
35910;BME280;22004;49.120;-0.200;2023-03-14T13:20:38;100780.50;;;10.73;65.65
35910;BME280;22004;49.120;-0.200;2023-03-14T13:23:18;100771.69;;;11.17;64.35
35910;BME280;22004;49.120;-0.200;2023-03-14T13:25:44;100778.88;;;11.39;63.32
35910;BME280;22004;49.120;-0.200;2023-03-14T13:28:10;100789.56;;;10.72;62.80
35910;BME280;22004;49.120;-0.200;2023-03-14T13:30:41;100786.66;;;11.34;62.10
35910;BME280;22004;49.120;-0.200;2023-03-14T13:33:12;100787.06;;;11.08;62.30
35910;BME280;22004;49.120;-0.200;2023-03-14T13:35:47;100805.13;;;11.00;63.44
35910;BME280;22004;49.120;-0.200;2023-03-14T13:38:17;100802.47;;;11.15;62.66
35910;BME280;22004;49.120;-0.200;2023-03-14T13:40:44;100802.25;;;11.01;62.83
35910;BME280;22004;49.120;-0.200;2023-03-14T13:43:16;100808.84;;;11.13;62.44
35910;BME280;22004;49.120;-0.200;2023-03-14T13:45:50;100811.09;;;11.25;63.04
35910;BME280;22004;49.120;-0.200;2023-03-14T13:48:16;100810.78;;;11.05;61.11